Portland, Oregon
Traffic Map
Current Weather Conditions
Portland, Oregon
Broken Clouds
Broken Clouds
23°
Feels Like: 23°
Wind Chill: 23° Ceiling: 6000
Heat Index: 23° Visibility: 10mi
Dew Point: 12° Wind: 12mph
Humidity: 49% Direction: 320° (NW)
Pressure: 29.94in Gusts: 17mph
Raw Report DataKPDX 302353Z 32010G15KT 10SM FEW037 BKN060 BKN090 23/12 A2994 RMK AO2 RAE42 SLP136 P0000 60000 T02280117 10228 20183 58001
Traffic Incident Summary
Active as of:
Severity:
Category:
InformationThere was an issue retrieving the traffic information for this location. Please try a different location or try again shortly.
Advertisements
Track Severe Weather on mobile